sensor_id;sensor_type;location;lat;lon;timestamp;temperature;humidity
10294;DHT22;5192;50.328;7.610;2023-05-14T00:01:56;9.00;85.00
10294;DHT22;5192;50.328;7.610;2023-05-14T00:04:26;9.10;85.20
10294;DHT22;5192;50.328;7.610;2023-05-14T00:06:54;9.00;85.00
10294;DHT22;5192;50.328;7.610;2023-05-14T00:09:22;9.00;85.00
10294;DHT22;5192;50.328;7.610;2023-05-14T00:11:49;9.00;84.90
10294;DHT22;5192;50.328;7.610;2023-05-14T00:14:17;8.90;84.80
10294;DHT22;5192;50.328;7.610;2023-05-14T00:16:43;8.90;84.90
10294;DHT22;5192;50.328;7.610;2023-05-14T00:19:11;8.80;84.70
10294;DHT22;5192;50.328;7.610;2023-05-14T00:21:37;8.80;84.60
10294;DHT22;5192;50.328;7.610;2023-05-14T00:24:05;8.80;84.60
10294;DHT22;5192;50.328;7.610;2023-05-14T00:26:32;8.70;84.40
10294;DHT22;5192;50.328;7.610;2023-05-14T00:28:59;8.60;84.20
10294;DHT22;5192;50.328;7.610;2023-05-14T00:31:26;8.60;84.10
10294;DHT22;5192;50.328;7.610;2023-05-14T00:33:54;8.50;84.00
10294;DHT22;5192;50.328;7.610;2023-05-14T00:36:20;8.40;83.80
10294;DHT22;5192;50.328;7.610;2023-05-14T00:38:48;8.40;83.70
10294;DHT22;5192;50.328;7.610;2023-05-14T00:41:15;8.30;83.60
10294;DHT22;5192;50.328;7.610;2023-05-14T00:43:41;8.20;83.30
10294;DHT22;5192;50.328;7.610;2023-05-14T00:46:07;8.20;83.30
10294;DHT22;5192;50.328;7.610;2023-05-14T00:48:36;8.20;83.20
10294;DHT22;5192;50.328;7.610;2023-05-14T00:51:03;8.10;83.20
10294;DHT22;5192;50.328;7.610;2023-05-14T00:53:30;8.10;83.10
10294;DHT22;5192;50.328;7.610;2023-05-14T00:55:57;8.10;83.10
10294;DHT22;5192;50.328;7.610;2023-05-14T00:58:24;8.10;83.20
10294;DHT22;5192;50.328;7.610;2023-05-14T01:00:52;8.10;83.20
10294;DHT22;5192;50.328;7.610;2023-05-14T01:03:20;8.10;83.10
10294;DHT22;5192;50.328;7.610;2023-05-14T01:06:17;8.10;83.10
10294;DHT22;5192;50.328;7.610;2023-05-14T01:09:07;8.10;83.20
10294;DHT22;5192;50.328;7.610;2023-05-14T01:15:18;8.30;83.50
10294;DHT22;5192;50.328;7.610;2023-05-14T01:18:17;8.30;84.10
10294;DHT22;5192;50.328;7.610;2023-05-14T01:20:49;8.40;83.50
10294;DHT22;5192;50.328;7.610;2023-05-14T01:23:20;8.40;84.20
10294;DHT22;5192;50.328;7.610;2023-05-14T01:25:46;8.40;83.60
10294;DHT22;5192;50.328;7.610;2023-05-14T01:28:31;8.50;83.70
10294;DHT22;5192;50.328;7.610;2023-05-14T01:31:08;8.50;83.60
10294;DHT22;5192;50.328;7.610;2023-05-14T01:33:41;8.60;83.70
10294;DHT22;5192;50.328;7.610;2023-05-14T01:36:09;8.60;83.60
10294;DHT22;5192;50.328;7.610;2023-05-14T01:38:35;8.70;83.80
10294;DHT22;5192;50.328;7.610;2023-05-14T01:41:03;8.60;83.60
10294;DHT22;5192;50.328;7.610;2023-05-14T01:43:33;8.70;83.70
10294;DHT22;5192;50.328;7.610;2023-05-14T01:46:00;8.80;83.70
10294;DHT22;5192;50.328;7.610;2023-05-14T01:48:26;8.60;83.60
10294;DHT22;5192;50.328;7.610;2023-05-14T01:50:55;8.70;83.70
10294;DHT22;5192;50.328;7.610;2023-05-14T01:53:25;8.70;83.70
10294;DHT22;5192;50.328;7.610;2023-05-14T01:55:52;8.70;83.70
10294;DHT22;5192;50.328;7.610;2023-05-14T01:58:19;8.70;83.70
10294;DHT22;5192;50.328;7.610;2023-05-14T02:00:46;8.60;83.70
10294;DHT22;5192;50.328;7.610;2023-05-14T02:03:14;8.50;83.60
10294;DHT22;5192;50.328;7.610;2023-05-14T02:05:42;8.50;83.60
10294;DHT22;5192;50.328;7.610;2023-05-14T02:08:08;8.40;83.40
10294;DHT22;5192;50.328;7.610;2023-05-14T02:10:34;8.30;83.40
10294;DHT22;5192;50.328;7.610;2023-05-14T02:13:02;8.30;83.30
10294;DHT22;5192;50.328;7.610;2023-05-14T02:15:30;8.20;83.30
10294;DHT22;5192;50.328;7.610;2023-05-14T02:17:57;8.10;83.00
10294;DHT22;5192;50.328;7.610;2023-05-14T02:20:24;8.00;82.90
10294;DHT22;5192;50.328;7.610;2023-05-14T02:22:52;7.90;83.40
10294;DHT22;5192;50.328;7.610;2023-05-14T02:25:20;7.90;82.70
10294;DHT22;5192;50.328;7.610;2023-05-14T02:27:48;7.80;82.40
10294;DHT22;5192;50.328;7.610;2023-05-14T02:30:15;7.70;82.20
10294;DHT22;5192;50.328;7.610;2023-05-14T02:32:40;7.60;82.00
10294;DHT22;5192;50.328;7.610;2023-05-14T02:35:06;7.60;82.00
10294;DHT22;5192;50.328;7.610;2023-05-14T02:37:34;7.70;82.20
10294;DHT22;5192;50.328;7.610;2023-05-14T02:40:01;7.70;82.30
10294;DHT22;5192;50.328;7.610;2023-05-14T02:42:27;7.90;82.60
10294;DHT22;5192;50.328;7.610;2023-05-14T02:44:54;8.00;82.60
10294;DHT22;5192;50.328;7.610;2023-05-14T02:47:21;8.00;82.70
10294;DHT22;5192;50.328;7.610;2023-05-14T02:49:49;8.10;82.80
10294;DHT22;5192;50.328;7.610;2023-05-14T02:52:16;8.10;82.80
10294;DHT22;5192;50.328;7.610;2023-05-14T02:54:43;8.20;83.50
10294;DHT22;5192;50.328;7.610;2023-05-14T02:57:10;8.20;83.00
10294;DHT22;5192;50.328;7.610;2023-05-14T02:59:37;8.30;83.10
10294;DHT22;5192;50.328;7.610;2023-05-14T03:02:08;8.30;83.10
10294;DHT22;5192;50.328;7.610;2023-05-14T03:04:36;8.30;83.10
10294;DHT22;5192;50.328;7.610;2023-05-14T03:07:01;8.20;83.00
10294;DHT22;5192;50.328;7.610;2023-05-14T03:09:28;8.30;83.10
10294;DHT22;5192;50.328;7.610;2023-05-14T03:11:55;8.30;83.20
10294;DHT22;5192;50.328;7.610;2023-05-14T03:14:24;8.30;83.20
10294;DHT22;5192;50.328;7.610;2023-05-14T03:16:50;8.30;83.20
10294;DHT22;5192;50.328;7.610;2023-05-14T03:19:16;8.30;83.40
10294;DHT22;5192;50.328;7.610;2023-05-14T03:21:43;8.30;83.30
10294;DHT22;5192;50.328;7.610;2023-05-14T03:24:12;8.40;83.40
10294;DHT22;5192;50.328;7.610;2023-05-14T03:26:39;8.40;83.50
10294;DHT22;5192;50.328;7.610;2023-05-14T03:29:07;8.50;83.60
10294;DHT22;5192;50.328;7.610;2023-05-14T03:31:35;8.70;83.80
10294;DHT22;5192;50.328;7.610;2023-05-14T03:34:02;8.60;83.70
10294;DHT22;5192;50.328;7.610;2023-05-14T03:36:29;8.60;83.80
10294;DHT22;5192;50.328;7.610;2023-05-14T03:38:54;8.60;83.80
10294;DHT22;5192;50.328;7.610;2023-05-14T03:41:21;8.70;84.00
10294;DHT22;5192;50.328;7.610;2023-05-14T03:43:49;8.70;84.00
10294;DHT22;5192;50.328;7.610;2023-05-14T03:46:16;8.60;83.80
10294;DHT22;5192;50.328;7.610;2023-05-14T03:48:43;8.60;83.80
10294;DHT22;5192;50.328;7.610;2023-05-14T03:51:12;8.70;83.90
10294;DHT22;5192;50.328;7.610;2023-05-14T03:53:40;8.60;83.70
10294;DHT22;5192;50.328;7.610;2023-05-14T03:56:08;8.70;83.80
10294;DHT22;5192;50.328;7.610;2023-05-14T03:58:34;8.70;83.80
10294;DHT22;5192;50.328;7.610;2023-05-14T04:01:03;8.60;83.60
10294;DHT22;5192;50.328;7.610;2023-05-14T04:03:30;8.60;83.60
10294;DHT22;5192;50.328;7.610;2023-05-14T04:05:57;8.60;83.50
10294;DHT22;5192;50.328;7.610;2023-05-14T04:08:24;8.80;83.60
10294;DHT22;5192;50.328;7.610;2023-05-14T04:10:49;8.80;83.60
10294;DHT22;5192;50.328;7.610;2023-05-14T04:13:19;8.80;83.60
10294;DHT22;5192;50.328;7.610;2023-05-14T04:15:46;8.60;83.40
10294;DHT22;5192;50.328;7.610;2023-05-14T04:18:13;8.50;83.30
10294;DHT22;5192;50.328;7.610;2023-05-14T04:20:40;8.60;83.30
10294;DHT22;5192;50.328;7.610;2023-05-14T04:23:06;8.60;83.20
10294;DHT22;5192;50.328;7.610;2023-05-14T04:25:34;8.70;83.30
10294;DHT22;5192;50.328;7.610;2023-05-14T04:28:00;8.60;83.10
10294;DHT22;5192;50.328;7.610;2023-05-14T04:30:27;8.70;83.20
10294;DHT22;5192;50.328;7.610;2023-05-14T04:32:54;8.80;83.20
10294;DHT22;5192;50.328;7.610;2023-05-14T04:35:21;8.80;83.10
10294;DHT22;5192;50.328;7.610;2023-05-14T04:37:49;8.80;83.10
10294;DHT22;5192;50.328;7.610;2023-05-14T04:40:17;8.80;83.00
10294;DHT22;5192;50.328;7.610;2023-05-14T04:42:43;8.80;83.10
10294;DHT22;5192;50.328;7.610;2023-05-14T04:45:09;8.90;83.20
10294;DHT22;5192;50.328;7.610;2023-05-14T04:47:37;8.90;83.20
10294;DHT22;5192;50.328;7.610;2023-05-14T04:50:06;8.90;83.20
10294;DHT22;5192;50.328;7.610;2023-05-14T04:52:34;9.00;83.30
10294;DHT22;5192;50.328;7.610;2023-05-14T04:55:01;8.90;83.40
10294;DHT22;5192;50.328;7.610;2023-05-14T04:57:29;8.80;83.30
10294;DHT22;5192;50.328;7.610;2023-05-14T04:59:57;8.80;83.20
10294;DHT22;5192;50.328;7.610;2023-05-14T05:02:25;8.70;83.90
10294;DHT22;5192;50.328;7.610;2023-05-14T05:04:51;8.80;83.90
10294;DHT22;5192;50.328;7.610;2023-05-14T05:07:19;8.80;83.30
10294;DHT22;5192;50.328;7.610;2023-05-14T05:09:46;8.70;83.30
10294;DHT22;5192;50.328;7.610;2023-05-14T05:12:14;8.80;83.20
10294;DHT22;5192;50.328;7.610;2023-05-14T05:14:41;8.80;83.30
10294;DHT22;5192;50.328;7.610;2023-05-14T05:17:10;8.80;83.30
10294;DHT22;5192;50.328;7.610;2023-05-14T05:19:38;8.80;83.30
10294;DHT22;5192;50.328;7.610;2023-05-14T05:22:05;8.90;83.40
10294;DHT22;5192;50.328;7.610;2023-05-14T05:24:32;8.90;83.50
10294;DHT22;5192;50.328;7.610;2023-05-14T05:26:59;9.00;83.50
10294;DHT22;5192;50.328;7.610;2023-05-14T05:29:27;9.00;83.60
10294;DHT22;5192;50.328;7.610;2023-05-14T05:31:55;9.10;83.80
10294;DHT22;5192;50.328;7.610;2023-05-14T05:34:25;9.10;83.90
10294;DHT22;5192;50.328;7.610;2023-05-14T05:36:51;9.20;84.10
10294;DHT22;5192;50.328;7.610;2023-05-14T05:39:19;9.20;84.10
10294;DHT22;5192;50.328;7.610;2023-05-14T05:41:47;9.10;84.30
10294;DHT22;5192;50.328;7.610;2023-05-14T05:44:14;9.20;84.40
10294;DHT22;5192;50.328;7.610;2023-05-14T05:46:41;9.30;84.80
10294;DHT22;5192;50.328;7.610;2023-05-14T05:49:09;9.30;84.90
10294;DHT22;5192;50.328;7.610;2023-05-14T05:51:36;9.30;85.10
10294;DHT22;5192;50.328;7.610;2023-05-14T05:54:02;9.30;85.20
10294;DHT22;5192;50.328;7.610;2023-05-14T05:56:29;9.40;85.40
10294;DHT22;5192;50.328;7.610;2023-05-14T05:58:57;9.40;85.60
10294;DHT22;5192;50.328;7.610;2023-05-14T06:01:24;9.50;85.90
10294;DHT22;5192;50.328;7.610;2023-05-14T06:03:54;9.60;86.10
10294;DHT22;5192;50.328;7.610;2023-05-14T06:06:28;9.60;86.20
10294;DHT22;5192;50.328;7.610;2023-05-14T06:08:55;9.60;86.30
10294;DHT22;5192;50.328;7.610;2023-05-14T06:11:22;9.60;86.40
10294;DHT22;5192;50.328;7.610;2023-05-14T06:13:50;9.70;86.40
10294;DHT22;5192;50.328;7.610;2023-05-14T06:16:17;9.70;86.50
10294;DHT22;5192;50.328;7.610;2023-05-14T06:18:44;9.80;86.50
10294;DHT22;5192;50.328;7.610;2023-05-14T06:21:13;9.80;87.10
10294;DHT22;5192;50.328;7.610;2023-05-14T06:23:39;10.00;86.50
10294;DHT22;5192;50.328;7.610;2023-05-14T06:26:07;10.00;86.20
10294;DHT22;5192;50.328;7.610;2023-05-14T06:28:34;10.10;85.90
10294;DHT22;5192;50.328;7.610;2023-05-14T06:31:01;10.20;85.30
10294;DHT22;5192;50.328;7.610;2023-05-14T06:33:28;10.20;84.60
10294;DHT22;5192;50.328;7.610;2023-05-14T06:36:01;10.20;84.10
10294;DHT22;5192;50.328;7.610;2023-05-14T06:38:28;10.30;83.70
10294;DHT22;5192;50.328;7.610;2023-05-14T06:40:56;10.40;83.30
10294;DHT22;5192;50.328;7.610;2023-05-14T06:43:24;10.60;83.70
10294;DHT22;5192;50.328;7.610;2023-05-14T06:45:52;10.70;83.90
10294;DHT22;5192;50.328;7.610;2023-05-14T06:48:20;10.80;83.40
10294;DHT22;5192;50.328;7.610;2023-05-14T06:50:52;10.70;81.00
10294;DHT22;5192;50.328;7.610;2023-05-14T06:53:18;10.70;80.50
10294;DHT22;5192;50.328;7.610;2023-05-14T06:55:46;10.70;80.80
10294;DHT22;5192;50.328;7.610;2023-05-14T06:58:13;10.70;80.90
10294;DHT22;5192;50.328;7.610;2023-05-14T07:00:40;10.70;79.80
10294;DHT22;5192;50.328;7.610;2023-05-14T07:03:06;10.60;79.30
10294;DHT22;5192;50.328;7.610;2023-05-14T07:05:34;10.60;79.80
10294;DHT22;5192;50.328;7.610;2023-05-14T07:08:03;10.50;79.10
10294;DHT22;5192;50.328;7.610;2023-05-14T07:10:33;10.60;80.30
10294;DHT22;5192;50.328;7.610;2023-05-14T07:13:00;10.60;81.20
10294;DHT22;5192;50.328;7.610;2023-05-14T07:15:27;10.60;80.40
10294;DHT22;5192;50.328;7.610;2023-05-14T07:17:54;10.80;81.80
10294;DHT22;5192;50.328;7.610;2023-05-14T07:20:21;10.90;81.70
10294;DHT22;5192;50.328;7.610;2023-05-14T07:22:49;11.00;81.50
10294;DHT22;5192;50.328;7.610;2023-05-14T07:25:17;11.10;80.30
10294;DHT22;5192;50.328;7.610;2023-05-14T07:27:45;11.10;77.40
10294;DHT22;5192;50.328;7.610;2023-05-14T07:30:13;11.00;75.10
10294;DHT22;5192;50.328;7.610;2023-05-14T07:32:40;11.00;74.40
10294;DHT22;5192;50.328;7.610;2023-05-14T07:35:07;11.00;75.00
10294;DHT22;5192;50.328;7.610;2023-05-14T07:37:33;11.00;73.80
10294;DHT22;5192;50.328;7.610;2023-05-14T07:40:00;11.00;74.70
10294;DHT22;5192;50.328;7.610;2023-05-14T07:42:26;11.00;73.80
10294;DHT22;5192;50.328;7.610;2023-05-14T07:44:53;11.10;76.10
10294;DHT22;5192;50.328;7.610;2023-05-14T07:47:22;11.20;76.20
10294;DHT22;5192;50.328;7.610;2023-05-14T07:49:58;11.30;76.70
10294;DHT22;5192;50.328;7.610;2023-05-14T07:52:25;11.40;75.10
10294;DHT22;5192;50.328;7.610;2023-05-14T07:54:51;11.40;72.70
10294;DHT22;5192;50.328;7.610;2023-05-14T07:57:18;11.60;75.20
10294;DHT22;5192;50.328;7.610;2023-05-14T07:59:44;11.70;75.30
10294;DHT22;5192;50.328;7.610;2023-05-14T08:02:13;11.90;77.40
10294;DHT22;5192;50.328;7.610;2023-05-14T08:04:41;12.10;76.70
10294;DHT22;5192;50.328;7.610;2023-05-14T08:07:08;12.20;74.90
10294;DHT22;5192;50.328;7.610;2023-05-14T08:09:35;12.30;72.10
10294;DHT22;5192;50.328;7.610;2023-05-14T08:12:03;12.30;68.50
10294;DHT22;5192;50.328;7.610;2023-05-14T08:14:30;12.30;65.80
10294;DHT22;5192;50.328;7.610;2023-05-14T08:16:55;12.40;68.70
10294;DHT22;5192;50.328;7.610;2023-05-14T08:19:23;12.40;68.10
10294;DHT22;5192;50.328;7.610;2023-05-14T08:21:50;12.50;69.40
10294;DHT22;5192;50.328;7.610;2023-05-14T08:24:19;12.70;69.30
10294;DHT22;5192;50.328;7.610;2023-05-14T08:26:47;12.70;64.60
10294;DHT22;5192;50.328;7.610;2023-05-14T08:29:15;12.60;63.20
10294;DHT22;5192;50.328;7.610;2023-05-14T08:31:44;12.80;68.30
10294;DHT22;5192;50.328;7.610;2023-05-14T08:34:11;12.90;68.10
10294;DHT22;5192;50.328;7.610;2023-05-14T08:36:38;13.00;67.10
10294;DHT22;5192;50.328;7.610;2023-05-14T08:39:05;13.10;65.50
10294;DHT22;5192;50.328;7.610;2023-05-14T08:41:33;13.20;63.70
10294;DHT22;5192;50.328;7.610;2023-05-14T08:46:50;13.40;61.10
10294;DHT22;5192;50.328;7.610;2023-05-14T08:49:45;13.50;58.70
10294;DHT22;5192;50.328;7.610;2023-05-14T08:52:12;13.60;58.20
10294;DHT22;5192;50.328;7.610;2023-05-14T08:54:42;13.60;58.20
10294;DHT22;5192;50.328;7.610;2023-05-14T08:57:11;13.80;56.40
10294;DHT22;5192;50.328;7.610;2023-05-14T08:59:39;13.80;56.60
10294;DHT22;5192;50.328;7.610;2023-05-14T09:02:05;14.00;57.70
10294;DHT22;5192;50.328;7.610;2023-05-14T09:04:38;14.10;50.60
10294;DHT22;5192;50.328;7.610;2023-05-14T09:07:07;14.30;56.30
10294;DHT22;5192;50.328;7.610;2023-05-14T09:09:33;14.60;56.20
10294;DHT22;5192;50.328;7.610;2023-05-14T09:12:01;14.60;45.70
10294;DHT22;5192;50.328;7.610;2023-05-14T09:14:28;14.70;42.10
10294;DHT22;5192;50.328;7.610;2023-05-14T09:16:57;14.70;38.50
10294;DHT22;5192;50.328;7.610;2023-05-14T09:19:23;14.60;36.90
10294;DHT22;5192;50.328;7.610;2023-05-14T09:21:50;14.70;38.00
10294;DHT22;5192;50.328;7.610;2023-05-14T09:24:35;14.80;45.80
10294;DHT22;5192;50.328;7.610;2023-05-14T09:27:06;15.00;42.50
10294;DHT22;5192;50.328;7.610;2023-05-14T09:29:33;15.10;45.10
10294;DHT22;5192;50.328;7.610;2023-05-14T09:32:01;15.30;40.30
10294;DHT22;5192;50.328;7.610;2023-05-14T09:34:49;15.40;38.80
10294;DHT22;5192;50.328;7.610;2023-05-14T09:37:15;15.50;41.00
10294;DHT22;5192;50.328;7.610;2023-05-14T09:39:41;15.50;35.80
10294;DHT22;5192;50.328;7.610;2023-05-14T09:42:09;15.70;33.90
10294;DHT22;5192;50.328;7.610;2023-05-14T09:44:36;15.80;31.60
10294;DHT22;5192;50.328;7.610;2023-05-14T09:47:05;15.90;28.90
10294;DHT22;5192;50.328;7.610;2023-05-14T09:49:34;15.90;30.10
10294;DHT22;5192;50.328;7.610;2023-05-14T09:52:02;15.90;30.90
10294;DHT22;5192;50.328;7.610;2023-05-14T09:54:32;15.90;30.10
10294;DHT22;5192;50.328;7.610;2023-05-14T09:57:00;16.00;33.40
10294;DHT22;5192;50.328;7.610;2023-05-14T09:59:27;16.10;31.90
10294;DHT22;5192;50.328;7.610;2023-05-14T10:01:54;16.20;30.90
10294;DHT22;5192;50.328;7.610;2023-05-14T10:04:23;16.20;27.60
10294;DHT22;5192;50.328;7.610;2023-05-14T10:06:52;16.30;29.40
10294;DHT22;5192;50.328;7.610;2023-05-14T10:09:20;16.10;23.90
10294;DHT22;5192;50.328;7.610;2023-05-14T10:11:57;16.20;25.90
10294;DHT22;5192;50.328;7.610;2023-05-14T10:14:32;16.40;25.80
10294;DHT22;5192;50.328;7.610;2023-05-14T10:17:08;16.50;26.10
10294;DHT22;5192;50.328;7.610;2023-05-14T10:19:51;16.50;21.00
10294;DHT22;5192;50.328;7.610;2023-05-14T10:22:22;16.40;15.80
10294;DHT22;5192;50.328;7.610;2023-05-14T10:24:52;16.40;17.80
10294;DHT22;5192;50.328;7.610;2023-05-14T10:27:20;16.50;18.70
10294;DHT22;5192;50.328;7.610;2023-05-14T10:29:54;16.60;18.00
10294;DHT22;5192;50.328;7.610;2023-05-14T10:32:21;16.80;21.90
10294;DHT22;5192;50.328;7.610;2023-05-14T10:34:55;16.90;15.60
10294;DHT22;5192;50.328;7.610;2023-05-14T10:37:25;16.90;17.90
10294;DHT22;5192;50.328;7.610;2023-05-14T10:40:10;17.10;11.20
10294;DHT22;5192;50.328;7.610;2023-05-14T10:42:45;17.10;7.70
10294;DHT22;5192;50.328;7.610;2023-05-14T10:45:15;17.20;11.80
10294;DHT22;5192;50.328;7.610;2023-05-14T10:47:46;17.40;9.30
10294;DHT22;5192;50.328;7.610;2023-05-14T10:50:32;17.40;3.80
10294;DHT22;5192;50.328;7.610;2023-05-14T10:52:59;17.60;8.20
10294;DHT22;5192;50.328;7.610;2023-05-14T10:55:28;17.70;1.20
10294;DHT22;5192;50.328;7.610;2023-05-14T10:57:57;17.80;1.00
10294;DHT22;5192;50.328;7.610;2023-05-14T11:00:27;18.00;1.00
10294;DHT22;5192;50.328;7.610;2023-05-14T11:02:55;18.00;1.00
10294;DHT22;5192;50.328;7.610;2023-05-14T11:05:22;17.90;1.00
10294;DHT22;5192;50.328;7.610;2023-05-14T11:07:49;18.10;1.00
10294;DHT22;5192;50.328;7.610;2023-05-14T11:10:20;18.20;1.00
10294;DHT22;5192;50.328;7.610;2023-05-14T11:12:56;18.30;1.00
10294;DHT22;5192;50.328;7.610;2023-05-14T11:15:24;18.50;1.00
10294;DHT22;5192;50.328;7.610;2023-05-14T11:17:52;18.70;1.00
10294;DHT22;5192;50.328;7.610;2023-05-14T11:20:19;18.70;1.00
10294;DHT22;5192;50.328;7.610;2023-05-14T11:22:47;18.70;1.00
10294;DHT22;5192;50.328;7.610;2023-05-14T11:25:14;18.60;1.00
10294;DHT22;5192;50.328;7.610;2023-05-14T11:27:52;18.70;1.00
10294;DHT22;5192;50.328;7.610;2023-05-14T11:30:25;18.70;1.00
10294;DHT22;5192;50.328;7.610;2023-05-14T11:32:51;18.90;1.00
10294;DHT22;5192;50.328;7.610;2023-05-14T11:35:20;19.00;1.00
10294;DHT22;5192;50.328;7.610;2023-05-14T11:37:51;18.90;1.00
10294;DHT22;5192;50.328;7.610;2023-05-14T11:40:19;18.80;1.00
10294;DHT22;5192;50.328;7.610;2023-05-14T11:42:45;18.80;1.00
10294;DHT22;5192;50.328;7.610;2023-05-14T11:45:22;18.80;1.00
10294;DHT22;5192;50.328;7.610;2023-05-14T11:47:51;18.80;1.00
10294;DHT22;5192;50.328;7.610;2023-05-14T11:50:20;18.80;1.00
10294;DHT22;5192;50.328;7.610;2023-05-14T11:52:47;18.80;1.00
10294;DHT22;5192;50.328;7.610;2023-05-14T11:55:16;19.00;1.00
10294;DHT22;5192;50.328;7.610;2023-05-14T11:57:43;19.00;1.00
10294;DHT22;5192;50.328;7.610;2023-05-14T12:00:12;19.10;1.00
10294;DHT22;5192;50.328;7.610;2023-05-14T12:02:41;19.10;1.00
10294;DHT22;5192;50.328;7.610;2023-05-14T12:05:07;19.10;1.00
10294;DHT22;5192;50.328;7.610;2023-05-14T12:07:35;19.20;1.00
10294;DHT22;5192;50.328;7.610;2023-05-14T12:10:04;19.50;1.00
10294;DHT22;5192;50.328;7.610;2023-05-14T12:12:35;19.80;1.00
10294;DHT22;5192;50.328;7.610;2023-05-14T12:15:10;20.00;1.00
10294;DHT22;5192;50.328;7.610;2023-05-14T12:17:37;20.40;1.00
10294;DHT22;5192;50.328;7.610;2023-05-14T12:20:07;20.80;1.00
10294;DHT22;5192;50.328;7.610;2023-05-14T12:22:36;21.00;1.00
10294;DHT22;5192;50.328;7.610;2023-05-14T12:25:08;21.20;1.00
10294;DHT22;5192;50.328;7.610;2023-05-14T12:27:37;21.40;1.00
10294;DHT22;5192;50.328;7.610;2023-05-14T12:30:05;21.40;1.00
10294;DHT22;5192;50.328;7.610;2023-05-14T12:32:32;21.20;1.00
10294;DHT22;5192;50.328;7.610;2023-05-14T12:35:00;21.00;1.00
10294;DHT22;5192;50.328;7.610;2023-05-14T12:37:27;20.90;1.00
10294;DHT22;5192;50.328;7.610;2023-05-14T12:39:54;20.90;1.00
10294;DHT22;5192;50.328;7.610;2023-05-14T12:42:20;20.90;1.00
10294;DHT22;5192;50.328;7.610;2023-05-14T12:44:46;20.70;1.00
10294;DHT22;5192;50.328;7.610;2023-05-14T12:47:16;20.60;1.00
10294;DHT22;5192;50.328;7.610;2023-05-14T12:49:43;20.40;1.00
10294;DHT22;5192;50.328;7.610;2023-05-14T12:52:11;20.10;1.00
10294;DHT22;5192;50.328;7.610;2023-05-14T12:54:36;20.10;1.00
10294;DHT22;5192;50.328;7.610;2023-05-14T12:57:06;20.10;1.00
10294;DHT22;5192;50.328;7.610;2023-05-14T12:59:33;20.00;1.00
10294;DHT22;5192;50.328;7.610;2023-05-14T13:02:00;19.90;1.00
10294;DHT22;5192;50.328;7.610;2023-05-14T13:04:25;19.80;1.00
10294;DHT22;5192;50.328;7.610;2023-05-14T13:06:51;19.50;2.10
10294;DHT22;5192;50.328;7.610;2023-05-14T13:09:19;19.70;7.30
10294;DHT22;5192;50.328;7.610;2023-05-14T13:11:46;19.70;9.00
10294;DHT22;5192;50.328;7.610;2023-05-14T13:14:12;19.70;13.30
10294;DHT22;5192;50.328;7.610;2023-05-14T13:16:39;19.70;9.20
10294;DHT22;5192;50.328;7.610;2023-05-14T13:19:07;19.80;11.10
10294;DHT22;5192;50.328;7.610;2023-05-14T13:21:35;19.90;8.10
10294;DHT22;5192;50.328;7.610;2023-05-14T13:24:11;20.20;3.80
10294;DHT22;5192;50.328;7.610;2023-05-14T13:26:39;20.60;1.00
10294;DHT22;5192;50.328;7.610;2023-05-14T13:29:07;20.90;1.00
10294;DHT22;5192;50.328;7.610;2023-05-14T13:31:35;21.20;1.00
10294;DHT22;5192;50.328;7.610;2023-05-14T13:34:02;21.60;1.00
10294;DHT22;5192;50.328;7.610;2023-05-14T13:36:27;21.80;1.00
10294;DHT22;5192;50.328;7.610;2023-05-14T13:38:54;22.00;1.00
10294;DHT22;5192;50.328;7.610;2023-05-14T13:41:21;22.20;1.00
10294;DHT22;5192;50.328;7.610;2023-05-14T13:43:48;22.10;1.00
10294;DHT22;5192;50.328;7.610;2023-05-14T13:46:14;21.80;1.00
10294;DHT22;5192;50.328;7.610;2023-05-14T13:48:44;21.40;1.00
10294;DHT22;5192;50.328;7.610;2023-05-14T13:51:09;21.00;1.00
10294;DHT22;5192;50.328;7.610;2023-05-14T13:53:36;20.30;1.00
10294;DHT22;5192;50.328;7.610;2023-05-14T13:56:04;19.70;1.00
10294;DHT22;5192;50.328;7.610;2023-05-14T13:58:31;19.20;1.00
10294;DHT22;5192;50.328;7.610;2023-05-14T14:00:58;18.70;13.20
10294;DHT22;5192;50.328;7.610;2023-05-14T14:03:26;18.00;23.70
10294;DHT22;5192;50.328;7.610;2023-05-14T14:05:54;17.50;35.70
10294;DHT22;5192;50.328;7.610;2023-05-14T14:08:19;17.20;48.00
10294;DHT22;5192;50.328;7.610;2023-05-14T14:10:48;17.00;57.90
10294;DHT22;5192;50.328;7.610;2023-05-14T14:13:16;16.80;62.80
10294;DHT22;5192;50.328;7.610;2023-05-14T14:15:43;16.80;66.70
10294;DHT22;5192;50.328;7.610;2023-05-14T14:18:11;16.90;70.10
10294;DHT22;5192;50.328;7.610;2023-05-14T14:20:39;17.00;68.20
10294;DHT22;5192;50.328;7.610;2023-05-14T14:23:06;17.40;62.90
10294;DHT22;5192;50.328;7.610;2023-05-14T14:25:33;17.80;63.60
10294;DHT22;5192;50.328;7.610;2023-05-14T14:28:01;18.60;62.50
10294;DHT22;5192;50.328;7.610;2023-05-14T14:30:26;19.50;40.00
10294;DHT22;5192;50.328;7.610;2023-05-14T14:32:53;20.30;2.60
10294;DHT22;5192;50.328;7.610;2023-05-14T14:35:21;21.50;1.00
10294;DHT22;5192;50.328;7.610;2023-05-14T14:37:50;23.00;1.00
10294;DHT22;5192;50.328;7.610;2023-05-14T14:40:19;24.30;1.00
10294;DHT22;5192;50.328;7.610;2023-05-14T14:42:50;24.50;1.00
10294;DHT22;5192;50.328;7.610;2023-05-14T14:45:18;24.80;1.00
10294;DHT22;5192;50.328;7.610;2023-05-14T14:47:45;24.50;1.00
10294;DHT22;5192;50.328;7.610;2023-05-14T14:50:12;24.30;1.00
10294;DHT22;5192;50.328;7.610;2023-05-14T14:52:40;24.40;1.00
10294;DHT22;5192;50.328;7.610;2023-05-14T14:55:13;25.00;1.00
10294;DHT22;5192;50.328;7.610;2023-05-14T14:57:39;25.30;1.00
10294;DHT22;5192;50.328;7.610;2023-05-14T15:00:08;25.30;1.00
10294;DHT22;5192;50.328;7.610;2023-05-14T15:02:35;24.80;1.00
10294;DHT22;5192;50.328;7.610;2023-05-14T15:05:06;23.90;1.00
10294;DHT22;5192;50.328;7.610;2023-05-14T15:07:33;23.70;1.00
10294;DHT22;5192;50.328;7.610;2023-05-14T15:10:01;24.00;1.00
10294;DHT22;5192;50.328;7.610;2023-05-14T15:12:28;25.00;1.00
10294;DHT22;5192;50.328;7.610;2023-05-14T15:14:55;26.20;1.00
10294;DHT22;5192;50.328;7.610;2023-05-14T15:17:20;26.50;1.00
10294;DHT22;5192;50.328;7.610;2023-05-14T15:19:48;26.90;1.00
10294;DHT22;5192;50.328;7.610;2023-05-14T15:22:14;26.80;1.00
10294;DHT22;5192;50.328;7.610;2023-05-14T15:24:41;26.60;1.00
10294;DHT22;5192;50.328;7.610;2023-05-14T15:27:08;26.90;1.00
10294;DHT22;5192;50.328;7.610;2023-05-14T15:29:36;27.00;1.00
10294;DHT22;5192;50.328;7.610;2023-05-14T15:32:02;27.00;1.00
10294;DHT22;5192;50.328;7.610;2023-05-14T15:34:29;27.30;1.00
10294;DHT22;5192;50.328;7.610;2023-05-14T15:36:57;27.40;1.00
10294;DHT22;5192;50.328;7.610;2023-05-14T15:39:24;27.80;1.00
10294;DHT22;5192;50.328;7.610;2023-05-14T15:41:50;28.10;1.00
10294;DHT22;5192;50.328;7.610;2023-05-14T15:44:17;27.90;1.00
10294;DHT22;5192;50.328;7.610;2023-05-14T15:46:47;27.90;1.00
10294;DHT22;5192;50.328;7.610;2023-05-14T15:49:15;27.40;1.00
10294;DHT22;5192;50.328;7.610;2023-05-14T15:51:43;27.10;1.00
10294;DHT22;5192;50.328;7.610;2023-05-14T15:54:11;26.80;1.00
10294;DHT22;5192;50.328;7.610;2023-05-14T15:56:38;26.90;1.00
10294;DHT22;5192;50.328;7.610;2023-05-14T15:59:04;26.90;1.00
10294;DHT22;5192;50.328;7.610;2023-05-14T16:01:31;26.70;1.00
10294;DHT22;5192;50.328;7.610;2023-05-14T16:04:01;26.80;1.00
10294;DHT22;5192;50.328;7.610;2023-05-14T16:06:29;26.40;1.00
10294;DHT22;5192;50.328;7.610;2023-05-14T16:08:57;26.30;1.00
10294;DHT22;5192;50.328;7.610;2023-05-14T16:11:26;26.60;1.00